CYCQ

Details ICAO CYCQ
Name CHETWYND
Region Canada
Timezone America/Dawson_Creek (UTC-7.0)
Plans Departing 1
Arriving 0
Stats Elevation 2,000 ft / 610 m (AMSL)
Location 55.687211° -121.626660°
Runways 1
Magnetic Variation 17.635° E
Sunrise 2017-12-15 16:31:28 UTC / 2017-12-15 09:31:28 Local
Sunset 2017-12-15 23:34:57 UTC / 2017-12-15 16:34:57 Local
Advertisement - Login to hide

Runways

ID Width Length Bearing (true) Bearing (mag) Surface Threshold Offset Overrun Length
05 100 ft / 30 m 4,473 ft / 1,363 m 72.32° 54.68° Asphalt 0 ft / 0 m 0 ft / 0 m
23 100 ft / 30 m 4,473 ft / 1,363 m 252.33° 234.69° Asphalt 0 ft / 0 m 0 ft / 0 m

Map

Weather


0- 5 10 15 20 25 30 35+ Temperature / ° C

Clouds and Precipitation
Forecast for 2017-12-15 18:00 UTC. Updated 2 hours ago

Ground ~20,000 ft ~40,000 ft Winds

METAR

CYCQ 151400Z 22008G15KT 190V250 10SM SKC 03/M05 A2980 RMK SLP116

TAF

Not found

Frequencies

Unicom 123.20 MHz CTAF
Warning: Do not use this data for real-world aviation or navigation. No guarantee of current accuracy is given.